createdAt,value
2023-02-03T00:03:41.828Z,3.45
2023-02-03T00:08:46.556Z,3.28
2023-02-03T00:13:52.734Z,3.00
2023-02-03T00:18:56.965Z,2.35
2023-02-03T00:24:01.148Z,2.88
2023-02-03T00:29:06.512Z,3.63
2023-02-03T00:34:10.809Z,2.72
2023-02-03T00:39:15.244Z,4.07
2023-02-03T00:44:20.678Z,1.45
2023-02-03T00:49:24.590Z,2.47
2023-02-03T00:54:28.666Z,2.08
2023-02-03T00:59:33.997Z,2.28
2023-02-03T01:04:38.072Z,1.50
2023-02-03T01:09:42.758Z,1.20
2023-02-03T01:14:49.639Z,1.52
2023-02-03T01:19:54.309Z,1.20
2023-02-03T01:24:58.557Z,1.17
2023-02-03T01:30:04.044Z,0.80
2023-02-03T01:35:08.773Z,2.28
2023-02-03T01:40:14.405Z,1.63
2023-02-03T01:45:20.862Z,1.10
2023-02-03T01:50:28.980Z,1.05
2023-02-03T01:55:37.264Z,1.40
2023-02-03T02:00:43.065Z,1.52
2023-02-03T02:05:52.640Z,1.13
2023-02-03T02:10:56.975Z,1.20
2023-02-03T02:16:10.471Z,1.10
2023-02-03T02:21:49.661Z,1.10
2023-02-03T02:27:04.964Z,0.90
2023-02-03T02:32:22.041Z,1.75
2023-02-03T02:37:39.671Z,1.75
2023-02-03T02:42:56.277Z,1.48
2023-02-03T02:48:08.974Z,2.22
2023-02-03T02:53:15.873Z,1.52
2023-02-03T02:58:23.371Z,1.10
2023-02-03T03:03:29.432Z,2.38
2023-02-03T03:08:38.856Z,2.88
2023-02-03T03:13:47.088Z,2.17
2023-02-03T03:18:57.661Z,3.10
2023-02-03T03:24:09.638Z,3.10
2023-02-03T03:29:19.410Z,2.70
2023-02-03T03:34:24.805Z,2.80
2023-02-03T03:39:36.693Z,2.85
2023-02-03T03:44:46.240Z,3.33
2023-02-03T03:49:55.082Z,3.58
2023-02-03T03:55:02.747Z,4.50
2023-02-03T04:00:11.078Z,4.28
2023-02-03T04:05:20.161Z,4.00
2023-02-03T04:10:33.311Z,2.58
2023-02-03T04:15:37.888Z,2.88
2023-02-03T04:20:44.044Z,3.58
2023-02-03T04:25:48.432Z,3.65
2023-02-03T04:30:52.535Z,3.97
2023-02-03T04:35:58.253Z,4.07
2023-02-03T04:41:02.324Z,5.03
2023-02-03T04:46:06.538Z,3.80
2023-02-03T04:51:12.276Z,4.57
2023-02-03T04:56:16.951Z,4.07
2023-02-03T05:01:20.950Z,4.85
2023-02-03T05:06:28.790Z,5.72
2023-02-03T05:11:32.741Z,4.88
2023-02-03T05:16:36.810Z,4.75
2023-02-03T05:21:42.114Z,3.45
2023-02-03T05:26:46.576Z,4.50
2023-02-03T05:31:50.893Z,5.07
2023-02-03T05:36:56.862Z,3.95
2023-02-03T05:42:00.809Z,4.53
2023-02-03T05:47:05.008Z,4.22
2023-02-03T05:52:10.296Z,4.35
2023-02-03T05:57:14.295Z,3.83
2023-02-03T06:02:18.329Z,4.38
2023-02-03T06:07:23.881Z,3.55
2023-02-03T06:12:29.370Z,4.95
2023-02-03T06:17:33.862Z,9.20
2023-02-03T06:22:40.234Z,5.88
2023-02-03T06:27:45.379Z,4.53
2023-02-03T06:32:49.897Z,3.88
2023-02-03T06:37:57.579Z,6.32
2023-02-03T06:43:01.934Z,5.10
2023-02-03T06:48:06.186Z,5.07
2023-02-03T06:53:11.543Z,6.70
2023-02-03T06:58:15.560Z,8.85
2023-02-03T07:03:22.869Z,13.82
2023-02-03T07:08:28.613Z,5.25
2023-02-03T07:13:32.837Z,3.70
2023-02-03T07:18:47.057Z,4.28
2023-02-03T07:23:54.993Z,3.67
2023-02-03T07:29:01.029Z,12.40
2023-02-03T07:34:05.201Z,5.25
2023-02-03T07:39:10.850Z,6.13
2023-02-03T07:44:16.055Z,11.75
2023-02-03T07:49:20.305Z,4.88
2023-02-03T07:54:27.226Z,7.57
2023-02-03T07:59:31.442Z,2.92
2023-02-03T08:04:35.499Z,2.42
2023-02-03T08:09:40.891Z,2.83
2023-02-03T08:14:44.807Z,2.35
2023-02-03T08:19:49.115Z,4.18
2023-02-03T08:24:54.947Z,3.70
2023-02-03T08:29:59.167Z,4.60
2023-02-03T08:35:03.559Z,10.43
2023-02-03T08:40:11.796Z,4.10
2023-02-03T08:45:16.535Z,2.27
2023-02-03T08:50:20.734Z,6.57
2023-02-03T08:55:27.877Z,7.50
2023-02-03T09:00:32.457Z,6.45
2023-02-03T09:05:38.928Z,5.45
2023-02-03T09:10:44.411Z,2.97
2023-02-03T09:15:48.564Z,6.05
2023-02-03T09:20:52.570Z,7.25
2023-02-03T09:26:02.804Z,2.13
2023-02-03T09:31:08.668Z,1.67
2023-02-03T09:36:13.519Z,4.65
2023-02-03T09:41:29.453Z,5.88
2023-02-03T09:46:39.192Z,3.28
2023-02-03T09:51:49.521Z,2.80
2023-02-03T09:56:55.915Z,3.60
2023-02-03T10:02:09.804Z,3.72
2023-02-03T10:07:20.416Z,2.72
2023-02-03T10:12:42.082Z,2.67
2023-02-03T10:17:53.223Z,2.80
2023-02-03T10:23:01.320Z,3.00
2023-02-03T10:28:16.222Z,3.92
2023-02-03T10:33:22.183Z,2.60
2023-02-03T10:38:40.384Z,1.45
2023-02-03T10:43:52.129Z,2.60
2023-02-03T10:48:56.783Z,5.00
2023-02-03T10:54:02.281Z,2.22
2023-02-03T10:59:10.015Z,4.30
2023-02-03T11:04:27.184Z,1.90
2023-02-03T11:09:35.430Z,2.40
2023-02-03T11:14:44.366Z,1.90
2023-02-03T11:19:50.079Z,1.80
2023-02-03T11:24:54.649Z,2.50
2023-02-03T11:30:14.587Z,3.40
2023-02-03T11:35:23.846Z,1.10
2023-02-03T11:40:33.262Z,1.30
2023-02-03T11:45:42.770Z,1.55
2023-02-03T11:50:50.687Z,1.75
2023-02-03T11:56:10.396Z,4.28
2023-02-03T12:07:05.081Z,2.35
2023-02-03T12:12:33.777Z,2.10
2023-02-03T12:17:49.863Z,4.95
2023-02-03T12:23:02.902Z,2.22
2023-02-03T12:28:33.796Z,2.85
2023-02-03T12:33:45.317Z,3.25
2023-02-03T12:38:55.680Z,3.30
2023-02-03T12:44:05.618Z,3.45
2023-02-03T12:49:20.563Z,4.32
2023-02-03T12:54:35.662Z,3.20
2023-02-03T12:59:43.382Z,2.90
2023-02-03T13:04:57.133Z,3.22
2023-02-03T13:10:06.450Z,3.05
2023-02-03T13:15:24.747Z,3.25
2023-02-03T13:20:36.292Z,2.38
2023-02-03T13:25:55.231Z,4.03
2023-02-03T13:31:26.926Z,4.13
2023-02-03T13:37:02.389Z,4.15
2023-02-03T13:42:22.570Z,7.13
2023-02-03T13:47:29.743Z,5.90
2023-02-03T13:52:48.664Z,3.75
2023-02-03T13:57:53.207Z,6.80
2023-02-03T14:02:58.224Z,7.65
2023-02-03T14:13:34.337Z,5.75
2023-02-03T14:18:46.180Z,4.15
2023-02-03T14:24:09.766Z,4.20
2023-02-03T14:29:30.380Z,4.28
2023-02-03T14:34:41.045Z,5.07
2023-02-03T14:40:26.438Z,4.43
2023-02-03T14:46:04.901Z,4.32
2023-02-03T14:51:17.533Z,5.93
2023-02-03T14:56:53.606Z,9.25
2023-02-03T15:02:16.107Z,3.30
2023-02-03T15:07:37.447Z,3.13
2023-02-03T15:12:46.620Z,2.80
2023-02-03T15:17:53.632Z,4.22
2023-02-03T15:23:00.102Z,4.05
2023-02-03T15:28:17.033Z,4.35
2023-02-03T15:33:23.633Z,4.32
2023-02-03T15:38:31.168Z,6.30
2023-02-03T15:43:38.470Z,6.00
2023-02-03T15:48:51.139Z,7.90
2023-02-03T15:54:02.939Z,9.73
2023-02-03T15:59:20.045Z,8.38
2023-02-03T16:04:26.727Z,10.30
2023-02-03T16:09:34.300Z,6.63
2023-02-03T16:14:39.336Z,6.13
2023-02-03T16:19:51.519Z,7.07
2023-02-03T16:24:56.060Z,10.43
2023-02-03T16:30:40.460Z,9.55
2023-02-03T16:36:03.149Z,9.82
2023-02-03T16:41:34.861Z,7.57
2023-02-03T16:46:57.801Z,4.50
2023-02-03T16:52:06.591Z,5.97
2023-02-03T16:57:10.759Z,3.80
2023-02-03T17:02:14.936Z,4.32
2023-02-03T17:07:22.161Z,6.28
2023-02-03T17:12:30.807Z,6.10
2023-02-03T17:17:34.891Z,4.13
2023-02-03T17:22:40.323Z,4.93
2023-02-03T17:27:47.755Z,5.72
2023-02-03T17:32:52.335Z,6.60
2023-02-03T17:37:59.014Z,5.38
2023-02-03T17:53:50.401Z,6.05
2023-02-03T17:58:57.543Z,3.85
2023-02-03T18:04:04.760Z,4.25
2023-02-03T18:09:14.382Z,4.20
2023-02-03T18:14:18.831Z,6.13
2023-02-03T18:19:23.860Z,5.32
2023-02-03T18:24:30.006Z,5.47
2023-02-03T18:29:34.059Z,5.00
2023-02-03T18:34:38.658Z,4.72
2023-02-03T18:39:44.580Z,6.25
2023-02-03T18:44:50.245Z,5.32
2023-02-03T18:49:54.338Z,6.60
2023-02-03T18:55:00.070Z,5.72
2023-02-03T19:00:05.522Z,5.93
2023-02-03T19:05:14.039Z,4.53
2023-02-03T19:10:21.956Z,4.87
2023-02-03T19:15:26.282Z,4.47
2023-02-03T19:20:31.811Z,7.07
2023-02-03T19:25:38.030Z,6.00
2023-02-03T19:30:42.521Z,5.68
2023-02-03T19:35:50.378Z,4.70
2023-02-03T19:40:57.324Z,4.95
2023-02-03T19:46:02.792Z,3.53
2023-02-03T19:51:10.922Z,3.03
2023-02-03T19:56:16.383Z,4.45
2023-02-03T20:01:20.524Z,5.88
2023-02-03T20:06:25.596Z,3.58
2023-02-03T20:11:31.283Z,2.83
2023-02-03T20:16:43.901Z,2.85
2023-02-03T20:21:49.669Z,3.10
2023-02-03T20:27:00.503Z,6.47
2023-02-03T20:32:04.799Z,7.93
2023-02-03T20:37:09.313Z,6.25
2023-02-03T20:42:18.812Z,6.47
2023-02-03T20:47:24.120Z,4.10
2023-02-03T20:52:28.331Z,5.82
2023-02-03T20:57:35.514Z,7.13
2023-02-03T21:02:54.021Z,8.07
2023-02-03T21:07:58.419Z,8.20
2023-02-03T21:13:17.250Z,11.55
2023-02-03T21:18:31.415Z,5.90
2023-02-03T21:23:41.244Z,6.78
2023-02-03T21:28:47.712Z,7.35
2023-02-03T21:33:53.750Z,8.90
2023-02-03T21:38:59.784Z,7.05
2023-02-03T21:44:26.988Z,5.60
2023-02-03T21:49:31.090Z,5.50
2023-02-03T21:54:37.437Z,6.70
2023-02-03T21:59:46.945Z,7.07
2023-02-03T22:04:51.826Z,7.53
2023-02-03T22:09:55.939Z,8.15
2023-02-03T22:15:01.355Z,6.70
2023-02-03T22:20:06.235Z,5.78
2023-02-03T22:25:12.823Z,6.88
2023-02-03T22:30:18.807Z,7.57
2023-02-03T22:35:23.227Z,6.90
2023-02-03T22:40:28.615Z,7.05
2023-02-03T22:45:34.224Z,5.90
2023-02-03T22:50:38.609Z,6.82
2023-02-03T22:55:43.477Z,6.57
2023-02-03T23:00:49.180Z,7.47
2023-02-03T23:05:54.120Z,7.15
2023-02-03T23:10:59.045Z,7.18
2023-02-03T23:16:04.567Z,12.30
2023-02-03T23:21:08.649Z,6.57
2023-02-03T23:26:12.729Z,5.43
2023-02-03T23:31:19.360Z,9.25
2023-02-03T23:36:23.373Z,7.13
2023-02-03T23:41:27.380Z,6.43
2023-02-03T23:46:32.913Z,8.00
2023-02-03T23:51:39.304Z,6.47
2023-02-03T23:56:43.313Z,6.47
